sensor_id;sensor_type;location;lat;lon;timestamp;P1;durP1;ratioP1;P2;durP2;ratioP2
41799;SDS011;27468;47.460;19.034;2024-01-11T00:02:11;47.55;;;25.48;;
41799;SDS011;27468;47.460;19.034;2024-01-11T00:04:36;46.63;;;25.17;;
41799;SDS011;27468;47.460;19.034;2024-01-11T00:07:02;43.93;;;24.93;;
41799;SDS011;27468;47.460;19.034;2024-01-11T00:09:27;44.90;;;24.93;;
41799;SDS011;27468;47.460;19.034;2024-01-11T00:11:52;43.40;;;24.48;;
41799;SDS011;27468;47.460;19.034;2024-01-11T00:14:18;42.63;;;24.03;;
41799;SDS011;27468;47.460;19.034;2024-01-11T00:16:43;43.40;;;23.97;;
41799;SDS011;27468;47.460;19.034;2024-01-11T00:19:08;42.83;;;23.73;;
41799;SDS011;27468;47.460;19.034;2024-01-11T00:21:34;42.67;;;23.20;;
41799;SDS011;27468;47.460;19.034;2024-01-11T00:23:59;41.40;;;23.67;;
41799;SDS011;27468;47.460;19.034;2024-01-11T00:26:25;40.15;;;22.45;;
41799;SDS011;27468;47.460;19.034;2024-01-11T00:28:50;41.83;;;22.80;;
41799;SDS011;27468;47.460;19.034;2024-01-11T00:31:15;40.57;;;23.00;;
41799;SDS011;27468;47.460;19.034;2024-01-11T00:33:41;44.23;;;23.90;;
41799;SDS011;27468;47.460;19.034;2024-01-11T00:36:06;40.87;;;23.03;;
41799;SDS011;27468;47.460;19.034;2024-01-11T00:38:31;41.43;;;22.90;;
41799;SDS011;27468;47.460;19.034;2024-01-11T00:40:57;41.87;;;23.23;;
41799;SDS011;27468;47.460;19.034;2024-01-11T00:43:22;39.97;;;22.97;;
41799;SDS011;27468;47.460;19.034;2024-01-11T00:45:47;41.08;;;22.98;;
41799;SDS011;27468;47.460;19.034;2024-01-11T00:48:13;45.67;;;24.07;;
41799;SDS011;27468;47.460;19.034;2024-01-11T00:50:38;42.70;;;23.33;;
41799;SDS011;27468;47.460;19.034;2024-01-11T00:53:03;42.63;;;23.20;;
41799;SDS011;27468;47.460;19.034;2024-01-11T00:55:29;43.58;;;23.65;;
41799;SDS011;27468;47.460;19.034;2024-01-11T00:57:54;43.63;;;24.70;;
41799;SDS011;27468;47.460;19.034;2024-01-11T01:00:20;44.03;;;24.55;;
41799;SDS011;27468;47.460;19.034;2024-01-11T01:02:45;46.57;;;24.70;;
41799;SDS011;27468;47.460;19.034;2024-01-11T01:05:12;44.73;;;24.30;;
41799;SDS011;27468;47.460;19.034;2024-01-11T01:07:37;43.22;;;24.50;;
41799;SDS011;27468;47.460;19.034;2024-01-11T01:10:02;43.00;;;24.03;;
41799;SDS011;27468;47.460;19.034;2024-01-11T01:12:28;42.08;;;24.20;;
41799;SDS011;27468;47.460;19.034;2024-01-11T01:14:54;45.53;;;24.70;;
41799;SDS011;27468;47.460;19.034;2024-01-11T01:17:20;45.63;;;25.23;;
41799;SDS011;27468;47.460;19.034;2024-01-11T01:19:46;46.08;;;25.40;;
41799;SDS011;27468;47.460;19.034;2024-01-11T01:22:12;46.47;;;24.80;;
41799;SDS011;27468;47.460;19.034;2024-01-11T01:24:37;43.53;;;24.97;;
41799;SDS011;27468;47.460;19.034;2024-01-11T01:27:02;44.78;;;23.98;;
41799;SDS011;27468;47.460;19.034;2024-01-11T01:29:28;43.47;;;24.70;;
41799;SDS011;27468;47.460;19.034;2024-01-11T01:31:53;42.80;;;24.55;;
41799;SDS011;27468;47.460;19.034;2024-01-11T01:34:19;44.23;;;24.00;;
41799;SDS011;27468;47.460;19.034;2024-01-11T01:36:44;45.70;;;24.83;;
41799;SDS011;27468;47.460;19.034;2024-01-11T01:39:10;43.72;;;24.90;;
41799;SDS011;27468;47.460;19.034;2024-01-11T01:41:35;46.20;;;24.90;;
41799;SDS011;27468;47.460;19.034;2024-01-11T01:44:00;46.53;;;25.50;;
41799;SDS011;27468;47.460;19.034;2024-01-11T01:46:26;45.55;;;24.00;;
41799;SDS011;27468;47.460;19.034;2024-01-11T01:48:53;44.75;;;24.35;;
41799;SDS011;27468;47.460;19.034;2024-01-11T01:51:20;45.53;;;24.57;;
41799;SDS011;27468;47.460;19.034;2024-01-11T01:53:47;45.13;;;24.60;;
41799;SDS011;27468;47.460;19.034;2024-01-11T01:56:15;44.20;;;24.27;;
41799;SDS011;27468;47.460;19.034;2024-01-11T01:58:42;44.50;;;25.10;;
41799;SDS011;27468;47.460;19.034;2024-01-11T02:01:08;46.15;;;25.20;;
41799;SDS011;27468;47.460;19.034;2024-01-11T02:03:33;44.28;;;24.60;;
41799;SDS011;27468;47.460;19.034;2024-01-11T02:06:00;46.80;;;25.15;;
41799;SDS011;27468;47.460;19.034;2024-01-11T02:08:27;46.92;;;25.77;;
41799;SDS011;27468;47.460;19.034;2024-01-11T02:10:54;46.80;;;25.17;;
41799;SDS011;27468;47.460;19.034;2024-01-11T02:13:20;46.10;;;25.47;;
41799;SDS011;27468;47.460;19.034;2024-01-11T02:15:46;45.78;;;25.30;;
41799;SDS011;27468;47.460;19.034;2024-01-11T02:18:11;45.90;;;25.33;;
41799;SDS011;27468;47.460;19.034;2024-01-11T02:20:36;45.33;;;25.13;;
41799;SDS011;27468;47.460;19.034;2024-01-11T02:23:03;48.25;;;25.80;;
41799;SDS011;27468;47.460;19.034;2024-01-11T02:25:32;43.10;;;24.77;;
41799;SDS011;27468;47.460;19.034;2024-01-11T02:27:58;45.95;;;25.45;;
41799;SDS011;27468;47.460;19.034;2024-01-11T02:30:23;46.93;;;24.80;;
41799;SDS011;27468;47.460;19.034;2024-01-11T02:32:49;46.13;;;25.30;;
41799;SDS011;27468;47.460;19.034;2024-01-11T02:35:15;44.28;;;24.63;;
41799;SDS011;27468;47.460;19.034;2024-01-11T02:37:41;45.77;;;24.53;;
41799;SDS011;27468;47.460;19.034;2024-01-11T02:40:07;47.33;;;24.92;;
41799;SDS011;27468;47.460;19.034;2024-01-11T02:42:33;43.97;;;25.05;;
41799;SDS011;27468;47.460;19.034;2024-01-11T02:44:59;45.20;;;25.10;;
41799;SDS011;27468;47.460;19.034;2024-01-11T02:47:24;46.10;;;25.15;;
41799;SDS011;27468;47.460;19.034;2024-01-11T02:49:50;45.13;;;25.30;;
41799;SDS011;27468;47.460;19.034;2024-01-11T02:52:15;45.67;;;25.20;;
41799;SDS011;27468;47.460;19.034;2024-01-11T02:54:40;44.27;;;25.50;;
41799;SDS011;27468;47.460;19.034;2024-01-11T02:57:06;46.47;;;25.70;;
41799;SDS011;27468;47.460;19.034;2024-01-11T02:59:31;46.07;;;25.77;;
41799;SDS011;27468;47.460;19.034;2024-01-11T03:01:57;45.95;;;26.13;;
41799;SDS011;27468;47.460;19.034;2024-01-11T03:04:23;47.28;;;26.75;;
41799;SDS011;27468;47.460;19.034;2024-01-11T03:06:48;47.97;;;26.47;;
41799;SDS011;27468;47.460;19.034;2024-01-11T03:09:13;49.67;;;27.53;;
41799;SDS011;27468;47.460;19.034;2024-01-11T03:11:39;49.67;;;26.77;;
41799;SDS011;27468;47.460;19.034;2024-01-11T03:14:04;46.88;;;26.80;;
41799;SDS011;27468;47.460;19.034;2024-01-11T03:16:29;49.00;;;26.67;;
41799;SDS011;27468;47.460;19.034;2024-01-11T03:18:55;48.80;;;26.20;;
41799;SDS011;27468;47.460;19.034;2024-01-11T03:21:20;48.45;;;26.52;;
41799;SDS011;27468;47.460;19.034;2024-01-11T03:23:45;47.80;;;26.83;;
41799;SDS011;27468;47.460;19.034;2024-01-11T03:26:15;48.87;;;26.87;;
41799;SDS011;27468;47.460;19.034;2024-01-11T03:28:41;48.38;;;26.70;;
41799;SDS011;27468;47.460;19.034;2024-01-11T03:31:08;50.13;;;27.03;;
41799;SDS011;27468;47.460;19.034;2024-01-11T03:33:34;48.78;;;27.08;;
41799;SDS011;27468;47.460;19.034;2024-01-11T03:35:59;45.97;;;25.27;;
41799;SDS011;27468;47.460;19.034;2024-01-11T03:38:24;47.80;;;26.23;;
41799;SDS011;27468;47.460;19.034;2024-01-11T03:40:50;45.13;;;25.77;;
41799;SDS011;27468;47.460;19.034;2024-01-11T03:43:18;46.10;;;25.70;;
41799;SDS011;27468;47.460;19.034;2024-01-11T03:45:44;48.08;;;26.63;;
41799;SDS011;27468;47.460;19.034;2024-01-11T03:48:09;46.07;;;26.13;;
41799;SDS011;27468;47.460;19.034;2024-01-11T03:50:34;47.73;;;25.60;;
41799;SDS011;27468;47.460;19.034;2024-01-11T03:53:00;46.80;;;26.53;;
41799;SDS011;27468;47.460;19.034;2024-01-11T03:55:25;48.47;;;26.23;;
41799;SDS011;27468;47.460;19.034;2024-01-11T03:57:52;46.33;;;26.40;;
41799;SDS011;27468;47.460;19.034;2024-01-11T04:00:18;49.57;;;26.70;;
41799;SDS011;27468;47.460;19.034;2024-01-11T04:02:43;47.03;;;26.60;;
41799;SDS011;27468;47.460;19.034;2024-01-11T04:05:09;48.50;;;27.02;;
41799;SDS011;27468;47.460;19.034;2024-01-11T04:07:34;48.13;;;26.43;;
41799;SDS011;27468;47.460;19.034;2024-01-11T04:10:00;49.17;;;27.13;;
41799;SDS011;27468;47.460;19.034;2024-01-11T04:12:25;53.00;;;28.87;;
41799;SDS011;27468;47.460;19.034;2024-01-11T04:14:50;49.80;;;27.07;;
41799;SDS011;27468;47.460;19.034;2024-01-11T04:17:16;50.87;;;27.67;;
41799;SDS011;27468;47.460;19.034;2024-01-11T04:19:41;58.87;;;32.93;;
41799;SDS011;27468;47.460;19.034;2024-01-11T04:22:06;49.30;;;27.33;;
41799;SDS011;27468;47.460;19.034;2024-01-11T04:24:32;43.80;;;25.03;;
41799;SDS011;27468;47.460;19.034;2024-01-11T04:26:57;47.93;;;26.37;;
41799;SDS011;27468;47.460;19.034;2024-01-11T04:29:22;47.90;;;26.40;;
41799;SDS011;27468;47.460;19.034;2024-01-11T04:31:47;51.67;;;27.90;;
41799;SDS011;27468;47.460;19.034;2024-01-11T04:34:13;47.40;;;26.13;;
41799;SDS011;27468;47.460;19.034;2024-01-11T04:36:38;49.13;;;26.23;;
41799;SDS011;27468;47.460;19.034;2024-01-11T04:39:04;46.65;;;25.13;;
41799;SDS011;27468;47.460;19.034;2024-01-11T04:41:31;44.03;;;24.63;;
41799;SDS011;27468;47.460;19.034;2024-01-11T04:43:56;46.87;;;25.47;;
41799;SDS011;27468;47.460;19.034;2024-01-11T04:46:22;45.23;;;24.97;;
41799;SDS011;27468;47.460;19.034;2024-01-11T04:48:49;47.08;;;25.20;;
41799;SDS011;27468;47.460;19.034;2024-01-11T04:51:15;47.47;;;25.73;;
41799;SDS011;27468;47.460;19.034;2024-01-11T04:53:42;44.70;;;25.70;;
41799;SDS011;27468;47.460;19.034;2024-01-11T04:56:09;45.42;;;25.42;;
41799;SDS011;27468;47.460;19.034;2024-01-11T04:58:36;46.17;;;24.85;;
41799;SDS011;27468;47.460;19.034;2024-01-11T05:01:04;47.45;;;25.58;;
41799;SDS011;27468;47.460;19.034;2024-01-11T05:03:30;43.63;;;24.35;;
41799;SDS011;27468;47.460;19.034;2024-01-11T05:05:56;45.78;;;25.40;;
41799;SDS011;27468;47.460;19.034;2024-01-11T05:08:22;48.42;;;25.20;;
41799;SDS011;27468;47.460;19.034;2024-01-11T05:10:48;45.95;;;24.83;;
41799;SDS011;27468;47.460;19.034;2024-01-11T05:13:14;45.53;;;25.27;;
41799;SDS011;27468;47.460;19.034;2024-01-11T05:15:39;48.35;;;25.67;;
41799;SDS011;27468;47.460;19.034;2024-01-11T05:18:04;46.20;;;24.93;;
41799;SDS011;27468;47.460;19.034;2024-01-11T05:20:30;42.73;;;24.53;;
41799;SDS011;27468;47.460;19.034;2024-01-11T05:22:55;43.13;;;24.40;;
41799;SDS011;27468;47.460;19.034;2024-01-11T05:25:20;44.72;;;23.75;;
41799;SDS011;27468;47.460;19.034;2024-01-11T05:27:46;46.33;;;24.17;;
41799;SDS011;27468;47.460;19.034;2024-01-11T05:30:11;44.90;;;24.03;;
41799;SDS011;27468;47.460;19.034;2024-01-11T05:32:37;42.70;;;23.85;;
41799;SDS011;27468;47.460;19.034;2024-01-11T05:35:02;43.83;;;24.73;;
41799;SDS011;27468;47.460;19.034;2024-01-11T05:37:28;45.00;;;24.67;;
41799;SDS011;27468;47.460;19.034;2024-01-11T05:39:53;45.33;;;24.43;;
41799;SDS011;27468;47.460;19.034;2024-01-11T05:42:22;47.25;;;24.95;;
41799;SDS011;27468;47.460;19.034;2024-01-11T05:44:47;45.50;;;24.20;;
41799;SDS011;27468;47.460;19.034;2024-01-11T05:47:13;43.50;;;24.92;;
41799;SDS011;27468;47.460;19.034;2024-01-11T05:49:38;46.37;;;24.93;;
41799;SDS011;27468;47.460;19.034;2024-01-11T05:52:03;41.87;;;24.37;;
41799;SDS011;27468;47.460;19.034;2024-01-11T05:54:29;42.92;;;24.30;;
41799;SDS011;27468;47.460;19.034;2024-01-11T05:56:54;43.90;;;23.93;;
41799;SDS011;27468;47.460;19.034;2024-01-11T05:59:23;43.13;;;24.00;;
41799;SDS011;27468;47.460;19.034;2024-01-11T06:01:48;45.13;;;24.35;;
41799;SDS011;27468;47.460;19.034;2024-01-11T06:04:13;41.53;;;23.15;;
41799;SDS011;27468;47.460;19.034;2024-01-11T06:06:39;46.67;;;25.43;;
41799;SDS011;27468;47.460;19.034;2024-01-11T06:09:05;44.57;;;24.43;;
41799;SDS011;27468;47.460;19.034;2024-01-11T06:11:30;43.20;;;25.03;;
41799;SDS011;27468;47.460;19.034;2024-01-11T06:13:55;40.63;;;23.50;;
41799;SDS011;27468;47.460;19.034;2024-01-11T06:16:22;44.80;;;25.23;;
41799;SDS011;27468;47.460;19.034;2024-01-11T06:18:47;43.60;;;24.20;;
41799;SDS011;27468;47.460;19.034;2024-01-11T06:21:13;43.40;;;24.53;;
41799;SDS011;27468;47.460;19.034;2024-01-11T06:23:38;44.25;;;24.23;;
41799;SDS011;27468;47.460;19.034;2024-01-11T06:26:03;40.90;;;22.83;;
41799;SDS011;27468;47.460;19.034;2024-01-11T06:28:29;43.77;;;23.33;;
41799;SDS011;27468;47.460;19.034;2024-01-11T06:30:54;42.78;;;24.08;;
41799;SDS011;27468;47.460;19.034;2024-01-11T06:33:20;43.40;;;23.53;;
41799;SDS011;27468;47.460;19.034;2024-01-11T06:35:45;43.70;;;23.87;;
41799;SDS011;27468;47.460;19.034;2024-01-11T06:38:11;44.35;;;24.67;;
41799;SDS011;27468;47.460;19.034;2024-01-11T06:40:36;43.67;;;23.17;;
41799;SDS011;27468;47.460;19.034;2024-01-11T06:43:02;43.72;;;23.95;;
41799;SDS011;27468;47.460;19.034;2024-01-11T06:45:27;42.33;;;23.40;;
41799;SDS011;27468;47.460;19.034;2024-01-11T06:47:53;45.87;;;24.50;;
41799;SDS011;27468;47.460;19.034;2024-01-11T06:50:18;42.55;;;23.50;;
41799;SDS011;27468;47.460;19.034;2024-01-11T06:52:43;44.87;;;24.83;;
41799;SDS011;27468;47.460;19.034;2024-01-11T06:55:09;45.47;;;24.63;;
41799;SDS011;27468;47.460;19.034;2024-01-11T06:57:35;45.88;;;25.27;;
41799;SDS011;27468;47.460;19.034;2024-01-11T07:00:01;45.40;;;24.50;;
41799;SDS011;27468;47.460;19.034;2024-01-11T07:02:27;46.47;;;24.50;;
41799;SDS011;27468;47.460;19.034;2024-01-11T07:04:52;47.80;;;25.05;;
41799;SDS011;27468;47.460;19.034;2024-01-11T07:07:18;45.00;;;25.00;;
41799;SDS011;27468;47.460;19.034;2024-01-11T07:09:43;45.13;;;24.77;;
41799;SDS011;27468;47.460;19.034;2024-01-11T07:12:09;44.83;;;24.77;;
41799;SDS011;27468;47.460;19.034;2024-01-11T07:14:35;44.13;;;24.40;;
41799;SDS011;27468;47.460;19.034;2024-01-11T07:17:00;44.00;;;24.87;;
41799;SDS011;27468;47.460;19.034;2024-01-11T07:19:25;42.13;;;24.60;;
41799;SDS011;27468;47.460;19.034;2024-01-11T07:21:51;46.70;;;25.77;;
41799;SDS011;27468;47.460;19.034;2024-01-11T07:24:16;43.33;;;25.00;;
41799;SDS011;27468;47.460;19.034;2024-01-11T07:26:43;46.78;;;25.00;;
41799;SDS011;27468;47.460;19.034;2024-01-11T07:29:09;46.47;;;25.35;;
41799;SDS011;27468;47.460;19.034;2024-01-11T07:31:34;44.70;;;25.50;;
41799;SDS011;27468;47.460;19.034;2024-01-11T07:33:59;44.20;;;25.47;;
41799;SDS011;27468;47.460;19.034;2024-01-11T07:36:25;47.13;;;26.97;;
41799;SDS011;27468;47.460;19.034;2024-01-11T07:38:50;46.30;;;26.35;;
41799;SDS011;27468;47.460;19.034;2024-01-11T07:41:16;47.20;;;26.73;;
41799;SDS011;27468;47.460;19.034;2024-01-11T07:43:41;45.65;;;25.98;;
41799;SDS011;27468;47.460;19.034;2024-01-11T07:46:06;49.83;;;26.47;;
41799;SDS011;27468;47.460;19.034;2024-01-11T07:48:32;47.97;;;26.50;;
41799;SDS011;27468;47.460;19.034;2024-01-11T07:50:58;50.93;;;26.80;;
41799;SDS011;27468;47.460;19.034;2024-01-11T07:53:24;48.13;;;26.35;;
41799;SDS011;27468;47.460;19.034;2024-01-11T07:55:50;48.90;;;26.85;;
41799;SDS011;27468;47.460;19.034;2024-01-11T07:58:16;49.80;;;26.50;;
41799;SDS011;27468;47.460;19.034;2024-01-11T08:00:41;50.20;;;26.80;;
41799;SDS011;27468;47.460;19.034;2024-01-11T08:03:07;48.17;;;27.10;;
41799;SDS011;27468;47.460;19.034;2024-01-11T08:05:33;48.35;;;26.48;;
41799;SDS011;27468;47.460;19.034;2024-01-11T08:07:59;46.90;;;27.10;;
41799;SDS011;27468;47.460;19.034;2024-01-11T08:10:26;46.78;;;27.23;;
41799;SDS011;27468;47.460;19.034;2024-01-11T08:12:52;47.47;;;26.40;;
41799;SDS011;27468;47.460;19.034;2024-01-11T08:15:17;46.70;;;26.87;;
41799;SDS011;27468;47.460;19.034;2024-01-11T08:17:43;47.47;;;26.57;;
41799;SDS011;27468;47.460;19.034;2024-01-11T08:20:10;49.08;;;27.05;;
41799;SDS011;27468;47.460;19.034;2024-01-11T08:22:36;47.47;;;25.95;;
41799;SDS011;27468;47.460;19.034;2024-01-11T08:25:04;46.53;;;26.25;;
41799;SDS011;27468;47.460;19.034;2024-01-11T08:27:30;45.13;;;25.60;;
41799;SDS011;27468;47.460;19.034;2024-01-11T08:29:56;43.38;;;24.85;;
41799;SDS011;27468;47.460;19.034;2024-01-11T08:32:22;45.33;;;25.58;;
41799;SDS011;27468;47.460;19.034;2024-01-11T08:34:47;44.20;;;24.97;;
41799;SDS011;27468;47.460;19.034;2024-01-11T08:37:13;43.45;;;24.80;;
41799;SDS011;27468;47.460;19.034;2024-01-11T08:39:39;43.13;;;25.02;;
41799;SDS011;27468;47.460;19.034;2024-01-11T08:42:04;42.40;;;23.47;;
41799;SDS011;27468;47.460;19.034;2024-01-11T08:44:30;38.95;;;22.95;;
41799;SDS011;27468;47.460;19.034;2024-01-11T08:46:56;40.83;;;23.73;;
41799;SDS011;27468;47.460;19.034;2024-01-11T08:49:22;39.55;;;23.15;;
41799;SDS011;27468;47.460;19.034;2024-01-11T08:51:47;38.17;;;22.90;;
41799;SDS011;27468;47.460;19.034;2024-01-11T08:54:13;39.27;;;23.23;;
41799;SDS011;27468;47.460;19.034;2024-01-11T08:56:41;38.70;;;22.52;;
41799;SDS011;27468;47.460;19.034;2024-01-11T08:59:07;39.03;;;22.52;;
41799;SDS011;27468;47.460;19.034;2024-01-11T09:01:33;33.50;;;20.10;;
41799;SDS011;27468;47.460;19.034;2024-01-11T09:04:02;30.88;;;18.15;;
41799;SDS011;27468;47.460;19.034;2024-01-11T09:06:28;28.00;;;17.60;;
41799;SDS011;27468;47.460;19.034;2024-01-11T09:08:53;30.42;;;17.80;;
41799;SDS011;27468;47.460;19.034;2024-01-11T09:11:19;30.93;;;18.53;;
41799;SDS011;27468;47.460;19.034;2024-01-11T09:13:44;28.17;;;18.20;;
41799;SDS011;27468;47.460;19.034;2024-01-11T09:16:10;31.90;;;18.37;;
41799;SDS011;27468;47.460;19.034;2024-01-11T09:18:39;29.53;;;18.07;;
41799;SDS011;27468;47.460;19.034;2024-01-11T09:21:04;31.77;;;17.80;;
41799;SDS011;27468;47.460;19.034;2024-01-11T09:23:30;29.20;;;18.07;;
41799;SDS011;27468;47.460;19.034;2024-01-11T09:25:55;30.43;;;18.13;;
41799;SDS011;27468;47.460;19.034;2024-01-11T09:28:20;30.87;;;18.10;;
41799;SDS011;27468;47.460;19.034;2024-01-11T09:30:46;30.80;;;17.70;;
41799;SDS011;27468;47.460;19.034;2024-01-11T09:33:11;30.30;;;18.27;;
41799;SDS011;27468;47.460;19.034;2024-01-11T09:35:36;30.15;;;17.75;;
41799;SDS011;27468;47.460;19.034;2024-01-11T09:38:02;27.67;;;17.00;;
41799;SDS011;27468;47.460;19.034;2024-01-11T09:40:27;28.00;;;17.00;;
41799;SDS011;27468;47.460;19.034;2024-01-11T09:42:53;27.90;;;16.92;;
41799;SDS011;27468;47.460;19.034;2024-01-11T09:45:18;25.27;;;15.77;;
41799;SDS011;27468;47.460;19.034;2024-01-11T09:47:44;27.63;;;15.73;;
41799;SDS011;27468;47.460;19.034;2024-01-11T09:50:15;18.03;;;11.80;;
41799;SDS011;27468;47.460;19.034;2024-01-11T09:52:45;21.33;;;12.53;;
41799;SDS011;27468;47.460;19.034;2024-01-11T09:55:15;15.48;;;9.00;;
41799;SDS011;27468;47.460;19.034;2024-01-11T09:57:45;14.10;;;8.83;;
41799;SDS011;27468;47.460;19.034;2024-01-11T10:00:18;14.90;;;8.40;;
41799;SDS011;27468;47.460;19.034;2024-01-11T10:02:46;14.35;;;8.80;;
41799;SDS011;27468;47.460;19.034;2024-01-11T10:05:12;15.90;;;9.67;;
41799;SDS011;27468;47.460;19.034;2024-01-11T10:07:39;15.15;;;9.75;;
41799;SDS011;27468;47.460;19.034;2024-01-11T10:10:04;18.00;;;11.40;;
41799;SDS011;27468;47.460;19.034;2024-01-11T10:12:32;18.58;;;11.60;;
41799;SDS011;27468;47.460;19.034;2024-01-11T10:15:06;18.95;;;11.85;;
41799;SDS011;27468;47.460;19.034;2024-01-11T10:17:36;18.90;;;11.98;;
41799;SDS011;27468;47.460;19.034;2024-01-11T10:20:05;19.05;;;11.32;;
41799;SDS011;27468;47.460;19.034;2024-01-11T10:22:31;18.40;;;12.20;;
41799;SDS011;27468;47.460;19.034;2024-01-11T10:25:09;19.90;;;12.70;;
41799;SDS011;27468;47.460;19.034;2024-01-11T10:27:36;18.38;;;11.73;;
41799;SDS011;27468;47.460;19.034;2024-01-11T10:30:02;20.15;;;12.77;;
41799;SDS011;27468;47.460;19.034;2024-01-11T10:32:28;18.70;;;11.25;;
41799;SDS011;27468;47.460;19.034;2024-01-11T10:34:53;18.13;;;11.80;;
41799;SDS011;27468;47.460;19.034;2024-01-11T10:37:19;18.47;;;11.23;;
41799;SDS011;27468;47.460;19.034;2024-01-11T10:39:46;18.00;;;11.63;;
41799;SDS011;27468;47.460;19.034;2024-01-11T10:42:15;19.20;;;11.68;;
41799;SDS011;27468;47.460;19.034;2024-01-11T10:44:46;18.35;;;11.52;;
41799;SDS011;27468;47.460;19.034;2024-01-11T10:47:13;20.70;;;12.25;;
41799;SDS011;27468;47.460;19.034;2024-01-11T10:49:41;20.63;;;12.63;;
41799;SDS011;27468;47.460;19.034;2024-01-11T10:52:09;20.23;;;12.83;;
41799;SDS011;27468;47.460;19.034;2024-01-11T10:54:37;21.58;;;13.00;;
41799;SDS011;27468;47.460;19.034;2024-01-11T10:57:04;20.92;;;12.88;;
41799;SDS011;27468;47.460;19.034;2024-01-11T10:59:32;21.98;;;13.32;;
41799;SDS011;27468;47.460;19.034;2024-01-11T11:02:04;23.10;;;14.93;;
41799;SDS011;27468;47.460;19.034;2024-01-11T11:04:31;23.88;;;15.23;;
41799;SDS011;27468;47.460;19.034;2024-01-11T11:07:00;24.63;;;14.80;;
41799;SDS011;27468;47.460;19.034;2024-01-11T11:09:26;25.23;;;15.55;;
41799;SDS011;27468;47.460;19.034;2024-01-11T11:11:56;24.35;;;15.25;;
41799;SDS011;27468;47.460;19.034;2024-01-11T11:14:23;26.58;;;15.88;;
41799;SDS011;27468;47.460;19.034;2024-01-11T11:16:49;24.23;;;15.63;;
41799;SDS011;27468;47.460;19.034;2024-01-11T11:19:16;25.98;;;16.40;;
41799;SDS011;27468;47.460;19.034;2024-01-11T11:21:44;28.00;;;16.40;;
41799;SDS011;27468;47.460;19.034;2024-01-11T11:24:10;25.67;;;15.43;;
41799;SDS011;27468;47.460;19.034;2024-01-11T11:26:36;24.95;;;16.00;;
41799;SDS011;27468;47.460;19.034;2024-01-11T11:29:03;25.45;;;15.35;;
41799;SDS011;27468;47.460;19.034;2024-01-11T11:34:10;25.27;;;16.17;;
41799;SDS011;27468;47.460;19.034;2024-01-11T11:36:36;23.63;;;15.63;;
41799;SDS011;27468;47.460;19.034;2024-01-11T11:39:01;24.30;;;15.63;;
41799;SDS011;27468;47.460;19.034;2024-01-11T11:41:27;23.40;;;14.93;;
41799;SDS011;27468;47.460;19.034;2024-01-11T11:44:00;24.88;;;15.23;;
41799;SDS011;27468;47.460;19.034;2024-01-11T11:46:26;24.02;;;15.63;;
41799;SDS011;27468;47.460;19.034;2024-01-11T11:48:51;22.60;;;14.57;;
41799;SDS011;27468;47.460;19.034;2024-01-11T11:51:20;23.35;;;14.63;;
41799;SDS011;27468;47.460;19.034;2024-01-11T11:53:48;22.83;;;14.77;;
41799;SDS011;27468;47.460;19.034;2024-01-11T11:56:16;23.08;;;14.77;;
41799;SDS011;27468;47.460;19.034;2024-01-11T11:58:43;24.35;;;15.65;;
41799;SDS011;27468;47.460;19.034;2024-01-11T12:01:10;26.08;;;16.27;;
41799;SDS011;27468;47.460;19.034;2024-01-11T12:03:37;26.50;;;16.73;;
41799;SDS011;27468;47.460;19.034;2024-01-11T12:06:04;27.33;;;16.17;;
41799;SDS011;27468;47.460;19.034;2024-01-11T12:08:30;24.00;;;15.20;;
41799;SDS011;27468;47.460;19.034;2024-01-11T12:10:56;23.90;;;14.93;;
41799;SDS011;27468;47.460;19.034;2024-01-11T12:13:22;25.30;;;15.30;;
41799;SDS011;27468;47.460;19.034;2024-01-11T12:15:47;23.73;;;14.77;;
41799;SDS011;27468;47.460;19.034;2024-01-11T12:18:13;21.53;;;13.67;;
41799;SDS011;27468;47.460;19.034;2024-01-11T12:20:38;20.52;;;13.85;;
41799;SDS011;27468;47.460;19.034;2024-01-11T12:23:04;20.55;;;13.63;;
41799;SDS011;27468;47.460;19.034;2024-01-11T12:25:30;22.33;;;14.07;;
41799;SDS011;27468;47.460;19.034;2024-01-11T12:27:56;20.60;;;13.43;;
41799;SDS011;27468;47.460;19.034;2024-01-11T12:30:22;20.52;;;13.40;;
41799;SDS011;27468;47.460;19.034;2024-01-11T12:32:48;20.08;;;13.27;;
41799;SDS011;27468;47.460;19.034;2024-01-11T12:35:15;20.90;;;13.70;;
41799;SDS011;27468;47.460;19.034;2024-01-11T12:37:41;22.23;;;14.45;;
41799;SDS011;27468;47.460;19.034;2024-01-11T12:40:17;24.50;;;14.68;;
41799;SDS011;27468;47.460;19.034;2024-01-11T12:42:42;23.53;;;15.03;;
41799;SDS011;27468;47.460;19.034;2024-01-11T12:45:08;22.27;;;15.15;;
41799;SDS011;27468;47.460;19.034;2024-01-11T12:47:33;21.57;;;13.93;;
41799;SDS011;27468;47.460;19.034;2024-01-11T12:49:59;27.60;;;19.30;;
41799;SDS011;27468;47.460;19.034;2024-01-11T12:52:24;23.20;;;15.57;;
41799;SDS011;27468;47.460;19.034;2024-01-11T12:54:52;21.02;;;13.57;;
41799;SDS011;27468;47.460;19.034;2024-01-11T12:57:20;20.90;;;12.83;;
41799;SDS011;27468;47.460;19.034;2024-01-11T12:59:49;22.98;;;14.13;;
41799;SDS011;27468;47.460;19.034;2024-01-11T13:02:15;20.60;;;13.43;;
41799;SDS011;27468;47.460;19.034;2024-01-11T13:04:44;20.92;;;13.45;;
41799;SDS011;27468;47.460;19.034;2024-01-11T13:07:11;23.00;;;14.45;;
41799;SDS011;27468;47.460;19.034;2024-01-11T13:09:37;20.63;;;13.65;;
41799;SDS011;27468;47.460;19.034;2024-01-11T13:12:03;22.07;;;13.90;;
41799;SDS011;27468;47.460;19.034;2024-01-11T13:14:28;20.97;;;14.20;;
41799;SDS011;27468;47.460;19.034;2024-01-11T13:16:54;21.63;;;14.00;;
41799;SDS011;27468;47.460;19.034;2024-01-11T13:19:19;21.42;;;13.70;;
41799;SDS011;27468;47.460;19.034;2024-01-11T13:21:44;24.13;;;15.70;;
41799;SDS011;27468;47.460;19.034;2024-01-11T13:24:10;22.23;;;14.23;;
41799;SDS011;27468;47.460;19.034;2024-01-11T13:26:35;22.03;;;14.80;;
41799;SDS011;27468;47.460;19.034;2024-01-11T13:29:04;22.93;;;13.93;;
41799;SDS011;27468;47.460;19.034;2024-01-11T13:31:32;22.13;;;14.80;;
41799;SDS011;27468;47.460;19.034;2024-01-11T13:33:58;21.27;;;14.65;;
41799;SDS011;27468;47.460;19.034;2024-01-11T13:36:23;23.67;;;14.90;;
41799;SDS011;27468;47.460;19.034;2024-01-11T13:38:49;24.73;;;14.70;;
41799;SDS011;27468;47.460;19.034;2024-01-11T13:41:15;23.77;;;15.27;;
41799;SDS011;27468;47.460;19.034;2024-01-11T13:43:42;23.00;;;14.38;;
41799;SDS011;27468;47.460;19.034;2024-01-11T13:46:07;22.88;;;14.65;;
41799;SDS011;27468;47.460;19.034;2024-01-11T13:48:34;21.90;;;14.88;;
41799;SDS011;27468;47.460;19.034;2024-01-11T13:50:59;22.10;;;14.27;;
41799;SDS011;27468;47.460;19.034;2024-01-11T13:53:25;22.50;;;14.60;;
41799;SDS011;27468;47.460;19.034;2024-01-11T13:55:50;24.48;;;15.45;;
41799;SDS011;27468;47.460;19.034;2024-01-11T13:58:17;24.45;;;15.68;;
41799;SDS011;27468;47.460;19.034;2024-01-11T14:00:43;23.65;;;15.90;;
41799;SDS011;27468;47.460;19.034;2024-01-11T14:03:09;24.65;;;15.90;;
41799;SDS011;27468;47.460;19.034;2024-01-11T14:05:36;24.95;;;15.73;;